Time;durP1;ratioP1;P1;durP2;ratioP2;P2;SDS_P1;SDS_P2;PMS_P1;PMS_P2;Temp;Humidity;BMP_temperature;BMP_pressure;BME280_temperature;BME280_humidity;BME280_pressure;Samples;Min_cycle;Max_cycle;Signal;HPM_P1;HPM_P2
2023/04/08 00:00:50;;;;;;;10.50;5.40;;;9.50;99.90;;;9.60;90.88;101029.94;5061657;28;20614;-67
2023/04/08 00:03:17;;;;;;;6.77;4.23;;;9.50;99.90;;;9.61;91.09;101034.19;5045911;28;20649;-67
2023/04/08 00:05:44;;;;;;;8.30;4.60;;;9.50;99.90;;;9.64;91.28;101034.00;5036385;28;20623;-69
2023/04/08 00:08:12;;;;;;;5.70;4.00;;;9.60;99.90;;;9.68;91.01;101030.28;5048196;28;20667;-68
2023/04/08 00:10:39;;;;;;;5.50;3.90;;;9.60;99.90;;;9.69;90.81;101024.16;5052982;28;20623;-67
2023/04/08 00:13:06;;;;;;;7.43;5.00;;;9.60;99.90;;;9.70;90.72;101026.66;5051614;28;20636;-69
2023/04/08 00:15:33;;;;;;;8.10;4.67;;;9.60;99.90;;;9.74;90.76;101033.34;5072733;28;20606;-68
2023/04/08 00:18:00;;;;;;;9.20;5.47;;;9.70;99.90;;;9.75;90.80;101034.19;5071959;28;20614;-68
2023/04/08 00:20:27;;;;;;;7.00;4.23;;;9.70;99.90;;;9.77;90.57;101037.53;5051135;28;20636;-65
2023/04/08 00:22:53;;;;;;;9.67;4.73;;;9.70;99.90;;;9.77;90.74;101034.94;5033678;28;21231;-68
2023/04/08 00:25:20;;;;;;;5.83;3.83;;;9.70;99.90;;;9.78;90.76;101034.81;5032989;28;20666;-66
2023/04/08 00:27:51;;;;;;;6.10;4.30;;;9.70;99.90;;;9.78;90.49;101032.22;5032818;28;20593;-65
2023/04/08 00:30:18;;;;;;;3.63;3.30;;;9.70;99.90;;;9.81;90.93;101039.03;5037028;28;20663;-67
2023/04/08 00:32:45;;;;;;;6.47;4.20;;;9.70;99.90;;;9.82;90.89;101033.69;5073195;28;20995;-67
2023/04/08 00:35:12;;;;;;;6.67;3.67;;;9.70;99.90;;;9.84;90.87;101036.19;5035488;28;20662;-67
2023/04/08 00:37:40;;;;;;;3.80;3.13;;;9.80;99.90;;;9.86;90.39;101035.19;5050876;28;20622;-67
2023/04/08 00:40:07;;;;;;;4.90;3.60;;;9.80;99.90;;;9.86;90.23;101034.38;5043521;28;21303;-67
2023/04/08 00:42:34;;;;;;;4.17;3.00;;;9.80;99.90;;;9.86;90.38;101032.56;5053463;28;20880;-66
2023/04/08 00:45:01;;;;;;;4.00;3.60;;;9.80;99.90;;;9.87;90.56;101033.41;5051403;28;20620;-67
2023/04/08 00:47:28;;;;;;;3.87;3.47;;;9.80;99.90;;;9.87;90.15;101038.63;5031655;28;21109;-66
2023/04/08 00:49:55;;;;;;;3.10;2.20;;;9.80;99.90;;;9.88;90.71;101042.94;5043598;28;20660;-67
2023/04/08 00:52:22;;;;;;;5.27;3.17;;;9.80;99.90;;;9.90;90.50;101048.88;5051482;28;20670;-67
2023/04/08 00:54:49;;;;;;;9.47;5.23;;;9.80;99.90;;;9.89;90.56;101048.03;5034527;28;20636;-66
2023/04/08 00:57:16;;;;;;;8.00;5.60;;;9.80;99.90;;;9.91;90.53;101042.72;5041494;28;20660;-66
2023/04/08 00:59:43;;;;;;;9.53;5.97;;;9.90;99.90;;;9.90;90.77;101046.28;5033932;28;20659;-67
2023/04/08 01:02:34;;;;;;;8.83;4.90;;;9.80;99.90;;;9.88;90.39;101048.94;5036009;28;20691;-67
2023/04/08 01:05:08;;;;;;;11.33;5.80;;;9.90;99.90;;;9.88;90.56;101048.13;5048665;28;20694;-68
2023/04/08 01:07:46;;;;;;;7.90;4.47;;;9.80;99.90;;;9.84;90.42;101046.63;5045278;28;21036;-68
2023/04/08 01:10:22;;;;;;;8.90;4.70;;;9.80;99.90;;;9.86;90.27;101044.78;5030106;28;20652;-68
2023/04/08 01:13:03;;;;;;;6.80;4.80;;;9.80;99.90;;;9.82;90.48;101044.13;5032869;28;20627;-67
2023/04/08 01:15:34;;;;;;;9.63;5.30;;;9.80;99.90;;;9.85;91.03;101040.50;5034145;28;20612;-67
2023/04/08 01:18:07;;;;;;;6.50;3.97;;;9.80;99.90;;;9.83;90.76;101034.53;5049146;28;20698;-66
2023/04/08 01:20:35;;;;;;;6.77;4.40;;;9.80;99.90;;;9.81;90.72;101036.41;5050396;28;20618;-68
2023/04/08 01:23:20;;;;;;;8.83;4.73;;;9.70;99.90;;;9.75;90.82;101039.41;5030782;28;20668;-68
2023/04/08 01:25:52;;;;;;;9.70;4.37;;;9.70;99.90;;;9.72;91.30;101037.81;5051740;28;20849;-67
2023/04/08 01:28:22;;;;;;;4.80;3.87;;;9.70;99.90;;;9.71;91.47;101040.53;5045369;28;20998;-66
2023/04/08 01:30:50;;;;;;;5.73;3.90;;;9.70;99.90;;;9.68;91.45;101035.50;5051140;28;20612;-67
2023/04/08 01:33:18;;;;;;;9.40;5.57;;;9.60;99.90;;;9.65;91.67;101035.66;5051120;28;20681;-67
2023/04/08 01:35:45;;;;;;;10.10;5.87;;;9.60;99.90;;;9.62;91.80;101041.09;5044430;28;20640;-70
2023/04/08 01:38:17;;;;;;;9.13;4.90;;;9.60;99.90;;;9.62;91.95;101035.88;5043132;28;20627;-67
2023/04/08 01:40:46;;;;;;;8.00;4.67;;;9.60;99.90;;;9.64;92.10;101039.22;5049538;28;20622;-69
2023/04/08 01:43:16;;;;;;;8.00;5.00;;;9.60;99.90;;;9.62;92.24;101030.66;5050638;28;21014;-67
2023/04/08 01:45:44;;;;;;;4.27;3.67;;;9.60;99.90;;;9.61;91.86;101036.78;5051544;28;20584;-66
2023/04/08 01:48:15;;;;;;;5.47;3.83;;;9.60;99.90;;;9.61;91.63;101026.38;5048598;28;20624;-66
2023/04/08 01:50:44;;;;;;;5.40;3.47;;;9.50;99.90;;;9.60;91.68;101032.53;5032202;22;20681;-68
2023/04/08 01:53:11;;;;;;;6.30;3.90;;;9.60;99.90;;;9.60;91.70;101028.16;4993141;28;20618;-67
2023/04/08 01:55:41;;;;;;;5.90;4.10;;;9.50;99.90;;;9.61;91.97;101034.19;5020529;28;20840;-69
2023/04/08 01:58:15;;;;;;;7.27;4.37;;;9.60;99.90;;;9.60;91.91;101033.38;5007784;28;20637;-68
2023/04/08 02:00:43;;;;;;;5.77;3.77;;;9.60;99.90;;;9.60;92.20;101032.53;5010686;28;20648;-67
2023/04/08 02:03:11;;;;;;;6.43;4.20;;;9.50;99.90;;;9.62;92.01;101028.06;5009802;28;20653;-68
2023/04/08 02:05:39;;;;;;;5.10;4.20;;;9.50;99.90;;;9.64;91.84;101034.00;5007597;28;20725;-68
2023/04/08 02:08:06;;;;;;;5.40;3.83;;;9.60;99.90;;;9.64;91.76;101031.41;5010783;28;21237;-67
2023/04/08 02:10:33;;;;;;;5.47;3.60;;;9.60;99.90;;;9.65;91.88;101031.31;5010696;28;20649;-68
2023/04/08 02:13:01;;;;;;;4.53;3.30;;;9.60;99.90;;;9.68;91.74;101035.50;5010877;28;20613;-67
2023/04/08 02:15:33;;;;;;;3.40;3.10;;;9.60;99.90;;;9.72;91.45;101036.97;5010257;28;20641;-68
2023/04/08 02:18:10;;;;;;;3.97;3.37;;;9.70;99.90;;;9.74;91.06;101035.09;5006711;28;20633;-67
2023/04/08 02:20:42;;;;;;;3.60;3.20;;;9.70;99.90;;;9.75;90.92;101042.00;5009407;28;20998;-69
2023/04/08 02:23:24;;;;;;;5.90;3.40;;;9.70;99.90;;;9.76;91.14;101038.44;5010728;28;20668;-68
2023/04/08 02:25:54;;;;;;;4.43;3.27;;;9.70;99.90;;;9.76;91.32;101036.69;5011964;28;20725;-67
2023/04/08 02:28:22;;;;;;;7.27;4.20;;;9.70;99.90;;;9.76;91.27;101035.84;5010000;28;20633;-69
2023/04/08 02:30:51;;;;;;;8.83;4.87;;;9.70;99.90;;;9.75;91.33;101036.78;5011459;28;20708;-69
2023/04/08 02:33:20;;;;;;;13.07;5.90;;;9.70;99.90;;;9.75;90.74;101036.78;5008720;28;21200;-67
2023/04/08 02:35:50;;;;;;;9.00;5.20;;;9.70;99.90;;;9.72;91.34;101037.81;4990359;28;20618;-68
2023/04/08 02:38:17;;;;;;;11.97;6.30;;;9.70;99.90;;;9.70;91.77;101039.69;5001839;28;20617;-68
2023/04/08 02:40:44;;;;;;;8.67;5.23;;;9.70;99.90;;;9.70;91.55;101038.84;5011006;28;20649;-68
2023/04/08 02:43:11;;;;;;;6.50;4.67;;;9.60;99.90;;;9.71;91.39;101037.91;5010098;28;20756;-69
2023/04/08 02:45:41;;;;;;;9.37;5.33;;;9.60;99.90;;;9.70;91.90;101036.22;5010633;28;20622;-68
2023/04/08 02:48:09;;;;;;;9.93;5.83;;;9.70;99.90;;;9.70;91.69;101044.06;5008383;28;21175;-67
2023/04/08 02:50:36;;;;;;;10.67;5.70;;;9.60;99.90;;;9.70;91.47;101041.44;5011073;28;21211;-68
2023/04/08 02:53:03;;;;;;;10.73;5.43;;;9.70;99.90;;;9.69;91.85;101035.38;5008686;28;21209;-69
2023/04/08 02:55:30;;;;;;;10.93;5.80;;;9.60;99.90;;;9.69;91.74;101039.78;5009552;28;20637;-68
2023/04/08 02:57:57;;;;;;;11.30;6.63;;;9.60;99.90;;;9.72;91.74;101036.97;5010058;28;20637;-67
2023/04/08 03:00:24;;;;;;;11.13;5.97;;;9.70;99.90;;;9.70;91.49;101033.63;5014955;28;20692;-68
2023/04/08 03:02:51;;;;;;;9.53;5.77;;;9.70;99.90;;;9.75;91.29;101039.41;5012207;28;20668;-68
2023/04/08 03:05:18;;;;;;;12.03;5.30;;;9.70;99.90;;;9.73;91.28;101038.66;5013627;28;20993;-68
2023/04/08 03:07:45;;;;;;;11.30;5.80;;;9.70;99.90;;;9.75;91.67;101031.59;5018351;28;20640;-68
2023/04/08 03:10:12;;;;;;;13.10;6.90;;;9.70;99.90;;;9.76;91.40;101043.66;5013442;28;20656;-67
2023/04/08 03:12:39;;;;;;;15.93;7.40;;;9.70;99.90;;;9.76;91.51;101044.50;5013092;28;20617;-68
2023/04/08 03:15:06;;;;;;;11.43;6.40;;;9.70;99.90;;;9.75;90.94;101047.22;5012698;28;20629;-68
2023/04/08 03:17:33;;;;;;;14.43;6.20;;;9.70;99.90;;;9.72;91.24;101042.19;5013805;28;20633;-68
2023/04/08 03:20:03;;;;;;;11.20;6.10;;;9.70;99.90;;;9.70;91.57;101036.22;5009312;28;20652;-68
2023/04/08 03:22:30;;;;;;;12.57;6.60;;;9.60;99.90;;;9.71;91.79;101040.53;5023487;28;21099;-69
2023/04/08 03:24:57;;;;;;;10.50;6.13;;;9.60;99.90;;;9.70;91.55;101038.84;5013684;28;20664;-69
2023/04/08 03:27:25;;;;;;;11.37;6.30;;;9.70;99.90;;;9.68;91.81;101043.31;5011724;28;20659;-70
2023/04/08 03:29:52;;;;;;;9.20;5.70;;;9.70;99.90;;;9.68;91.70;101038.09;5012216;28;20657;-68
2023/04/08 03:32:19;;;;;;;10.97;6.30;;;9.60;99.90;;;9.65;91.97;101049.53;5011298;28;20625;-68
2023/04/08 03:34:48;;;;;;;10.63;6.30;;;9.60;99.90;;;9.67;91.96;101045.06;5007855;28;20641;-68
2023/04/08 03:37:16;;;;;;;10.33;6.43;;;9.60;99.90;;;9.66;92.08;101053.84;5012944;28;20645;-68
2023/04/08 03:39:43;;;;;;;12.10;6.33;;;9.60;99.90;;;9.65;92.29;101046.09;5022766;28;20657;-68
2023/04/08 03:42:10;;;;;;;15.63;7.60;;;9.60;99.90;;;9.65;92.22;101048.69;5011909;28;20660;-66
2023/04/08 03:44:37;;;;;;;10.90;6.17;;;9.60;99.90;;;9.66;91.78;101050.38;5013060;28;20613;-69
2023/04/08 03:47:03;;;;;;;11.03;6.10;;;9.60;99.90;;;9.65;92.12;101046.09;5013097;28;20630;-68
2023/04/08 03:49:30;;;;;;;15.13;7.50;;;9.60;99.90;;;9.65;91.92;101049.53;5013267;28;20643;-71
2023/04/08 03:51:57;;;;;;;10.23;6.13;;;9.60;99.90;;;9.65;92.00;101059.13;5013576;28;20695;-68
2023/04/08 03:54:24;;;;;;;13.37;7.03;;;9.60;99.90;;;9.65;91.81;101059.13;5010669;28;21208;-69
2023/04/08 03:56:51;;;;;;;12.87;6.63;;;9.60;99.90;;;9.61;92.01;101058.47;5016192;28;21013;-68
2023/04/08 03:59:18;;;;;;;8.70;5.40;;;9.60;99.90;;;9.60;91.71;101056.81;5009256;28;20653;-68
2023/04/08 04:01:46;;;;;;;12.23;7.00;;;9.60;99.90;;;9.60;92.22;101055.97;5010877;28;20621;-69
2023/04/08 04:04:13;;;;;;;10.30;5.67;;;9.60;99.90;;;9.55;91.98;101066.69;5012491;28;20661;-68
2023/04/08 04:06:40;;;;;;;11.97;6.00;;;9.50;99.90;;;9.56;92.38;101062.31;5011985;28;20687;-68
2023/04/08 04:09:07;;;;;;;10.17;6.00;;;9.50;99.90;;;9.56;92.47;101068.34;5012668;28;21022;-68
2023/04/08 04:11:34;;;;;;;12.03;5.77;;;9.50;99.90;;;9.55;92.32;101065.81;5012623;28;20629;-68
2023/04/08 04:14:02;;;;;;;11.80;7.50;;;9.50;99.90;;;9.50;92.52;101067.91;5012445;28;20640;-68
2023/04/08 04:16:29;;;;;;;14.63;7.60;;;9.40;99.90;;;9.49;92.76;101066.22;5013557;28;20636;-67
2023/04/08 04:18:59;;;;;;;14.87;8.00;;;9.40;99.90;;;9.50;92.66;101065.28;5011441;28;20653;-67
2023/04/08 04:21:26;;;;;;;12.07;6.37;;;9.40;99.90;;;9.51;92.39;101061.75;5028510;28;20636;-68
2023/04/08 04:23:53;;;;;;;11.43;6.70;;;9.50;99.90;;;9.51;92.70;101065.19;5013231;28;20685;-68
2023/04/08 04:26:20;;;;;;;9.60;5.80;;;9.40;99.90;;;9.55;92.33;101068.44;5012801;28;20637;-68
2023/04/08 04:28:47;;;;;;;9.90;5.50;;;9.50;99.90;;;9.56;92.13;101075.34;5012073;28;21204;-67
2023/04/08 04:31:25;;;;;;;10.50;5.87;;;9.50;99.90;;;9.53;92.93;101072.91;5012656;28;20695;-68
2023/04/08 04:33:52;;;;;;;11.63;5.93;;;9.50;99.90;;;9.53;92.48;101078.13;5016310;28;20687;-67
2023/04/08 04:36:20;;;;;;;7.33;4.70;;;9.50;99.90;;;9.51;92.51;101075.59;5010444;28;20683;-68
2023/04/08 04:38:46;;;;;;;11.90;6.00;;;9.40;99.90;;;9.50;92.71;101081.72;5012317;28;20632;-67
2023/04/08 04:41:16;;;;;;;8.13;5.63;;;9.40;99.90;;;9.49;92.63;101074.88;5015360;28;20645;-67
2023/04/08 04:43:43;;;;;;;11.50;6.67;;;9.40;99.90;;;9.51;92.73;101085.19;5027357;28;20747;-68
2023/04/08 04:46:10;;;;;;;17.10;8.37;;;9.40;99.90;;;9.49;92.47;101072.25;5017307;28;20630;-67
2023/04/08 04:48:37;;;;;;;12.93;7.43;;;9.50;99.90;;;9.50;92.62;101081.72;5011544;28;20661;-67
2023/04/08 04:51:04;;;;;;;12.53;7.50;;;9.50;99.90;;;9.51;92.54;101083.41;5012366;28;20628;-68
2023/04/08 04:53:31;;;;;;;11.20;5.87;;;9.50;99.90;;;9.48;92.80;101085.34;5012175;28;20645;-68
2023/04/08 04:56:00;;;;;;;12.97;7.60;;;9.50;99.90;;;9.46;92.91;101089.81;5010136;28;21060;-67
2023/04/08 04:58:28;;;;;;;9.50;4.90;;;9.40;99.90;;;9.44;92.85;101089.06;5008886;28;20684;-68
2023/04/08 05:00:55;;;;;;;11.53;6.50;;;9.40;99.90;;;9.41;92.86;101097.09;5012240;28;20660;-68
2023/04/08 05:03:22;;;;;;;12.53;7.13;;;9.40;99.90;;;9.40;92.74;101091.03;5011815;28;21232;-67
2023/04/08 05:05:53;;;;;;;11.33;5.83;;;9.40;99.90;;;9.38;93.16;101090.28;5012199;28;20640;-68
2023/04/08 05:08:21;;;;;;;17.70;7.30;;;9.40;99.90;;;9.37;93.49;101099.88;5011571;28;20692;-68
2023/04/08 05:10:49;;;;;;;12.57;7.00;;;9.30;99.90;;;9.36;93.57;101102.56;5012492;28;20643;-68
2023/04/08 05:13:17;;;;;;;13.83;7.40;;;9.30;99.90;;;9.35;93.26;101109.53;5012593;28;20614;-68
2023/04/08 05:15:47;;;;;;;14.27;7.23;;;9.30;99.90;;;9.34;93.29;101110.47;5012495;28;20699;-68
2023/04/08 05:18:14;;;;;;;14.60;8.30;;;9.30;99.90;;;9.36;93.44;101100.81;4999150;28;20625;-68
2023/04/08 05:20:41;;;;;;;11.70;6.93;;;9.30;99.90;;;9.37;93.29;101105.06;5011409;28;20636;-68
2023/04/08 05:23:08;;;;;;;11.50;6.57;;;9.40;99.90;;;9.40;93.27;101106.66;5011865;28;21131;-68
2023/04/08 05:25:35;;;;;;;12.63;7.20;;;9.40;99.90;;;9.43;93.08;101113.47;5026663;28;21185;-67
2023/04/08 05:28:02;;;;;;;10.87;6.10;;;9.40;99.90;;;9.44;92.42;101117.72;5009904;28;20642;-68
2023/04/08 05:30:30;;;;;;;10.63;6.13;;;9.40;99.90;;;9.42;92.95;101111.78;5009596;28;21253;-67
2023/04/08 05:32:57;;;;;;;12.10;7.07;;;9.40;99.90;;;9.46;92.75;101115.88;5010152;28;20621;-68
2023/04/08 05:35:27;;;;;;;9.47;5.97;;;9.40;99.90;;;9.60;92.67;101111.53;5001816;28;21205;-68
2023/04/08 05:37:55;;;;;;;11.60;6.73;;;9.50;99.90;;;9.78;92.39;101118.22;5009542;28;21441;-66
2023/04/08 05:40:22;;;;;;;13.67;6.30;;;9.70;99.90;;;9.96;90.82;101121.47;5012620;28;20736;-66
2023/04/08 05:42:49;;;;;;;11.30;7.00;;;9.90;99.90;;;10.09;89.99;101120.59;5011811;28;20739;-67
2023/04/08 05:45:16;;;;;;;10.60;6.53;;;10.00;99.90;;;10.31;89.18;101125.34;5011670;28;20996;-68
2023/04/08 05:47:43;;;;;;;9.70;6.83;;;10.20;99.90;;;10.60;87.06;101131.34;5009080;28;20633;-67
2023/04/08 05:50:10;;;;;;;8.83;6.00;;;10.50;99.90;;;10.84;85.80;101125.38;5008478;28;20669;-68
2023/04/08 05:52:43;;;;;;;10.60;6.83;;;10.70;99.90;;;11.11;84.50;101132.34;5010817;28;21034;-68
2023/04/08 05:55:11;;;;;;;9.60;6.50;;;11.00;99.90;;;11.40;82.74;101137.28;5011505;28;20736;-68
2023/04/08 05:57:39;;;;;;;10.63;6.03;;;11.30;99.90;;;11.79;80.39;101143.38;5020819;28;20616;-67
2023/04/08 06:00:08;;;;;;;9.63;6.70;;;11.60;99.90;;;12.16;78.35;101143.34;5015399;28;20707;-68
2023/04/08 06:02:36;;;;;;;8.47;6.40;;;12.00;99.90;;;12.44;76.24;101145.66;5007831;28;20661;-68
2023/04/08 06:05:04;;;;;;;8.10;5.20;;;12.30;99.90;;;12.74;74.37;101154.88;5008455;28;20628;-68
2023/04/08 06:07:32;;;;;;;7.53;5.70;;;12.60;99.90;;;13.10;71.45;101157.44;5008789;28;20661;-68
2023/04/08 06:09:58;;;;;;;7.73;5.97;;;12.90;99.90;;;13.32;69.68;101164.56;4992544;28;20646;-68
2023/04/08 06:12:25;;;;;;;8.50;6.10;;;13.20;99.90;;;13.29;70.18;101163.00;5009434;28;20679;-67
2023/04/08 06:14:55;;;;;;;9.30;6.37;;;13.20;99.90;;;13.31;69.56;101171.56;5010425;28;21173;-69
2023/04/08 06:17:22;;;;;;;8.20;5.27;;;13.20;99.90;;;13.00;69.16;101165.13;5011110;28;20617;-69
2023/04/08 06:19:49;;;;;;;8.20;5.53;;;13.00;99.90;;;12.89;69.43;101170.31;5009148;28;21475;-68
2023/04/08 06:22:17;;;;;;;7.13;5.70;;;12.90;99.90;;;12.69;69.30;101170.09;5010408;28;20633;-68
2023/04/08 06:24:46;;;;;;;7.60;6.63;;;12.70;99.90;;;12.15;70.16;101164.38;5009971;28;20665;-67
2023/04/08 06:27:13;;;;;;;8.70;6.20;;;12.30;99.90;;;11.81;71.63;101171.09;5009474;28;20667;-67
2023/04/08 06:29:40;;;;;;;6.97;5.63;;;11.90;99.90;;;11.59;72.25;101176.91;5008684;28;20653;-68
2023/04/08 06:32:09;;;;;;;6.87;5.33;;;11.60;99.90;;;11.52;72.42;101188.72;5010000;28;20665;-68
2023/04/08 06:34:36;;;;;;;8.40;5.63;;;11.50;99.90;;;11.46;73.46;101183.06;5008661;28;20679;-68
2023/04/08 06:37:05;;;;;;;7.40;6.13;;;11.50;99.90;;;11.71;73.68;101185.75;5009951;28;20641;-68
2023/04/08 06:39:32;;;;;;;10.67;6.53;;;11.60;99.90;;;12.13;69.92;101185.41;5006238;28;20657;-67
2023/04/08 06:41:59;;;;;;;7.60;5.37;;;12.10;99.90;;;12.52;68.43;101173.09;5006623;28;20717;-69
2023/04/08 06:44:26;;;;;;;6.30;5.50;;;12.40;99.90;;;13.15;68.99;101182.38;5004632;28;20665;-65
2023/04/08 06:46:53;;;;;;;6.00;5.37;;;13.00;99.90;;;14.20;64.49;101184.81;5009369;28;20625;-68
2023/04/08 06:49:22;;;;;;;6.30;5.63;;;14.00;99.90;;;15.28;61.36;101183.84;5004302;28;20705;-72
2023/04/08 06:51:49;;;;;;;7.10;6.30;;;15.10;99.90;;;16.28;58.07;101178.78;5005876;28;20740;-71
2023/04/08 06:54:16;;;;;;;5.70;4.70;;;16.00;99.90;;;17.32;54.94;101194.03;5006678;28;20634;-67
2023/04/08 06:56:43;;;;;;;5.17;4.67;;;17.10;99.90;;;18.23;52.95;101191.66;5003166;28;20638;-68
2023/04/08 06:59:10;;;;;;;10.70;5.43;;;18.10;99.90;;;18.82;50.59;101191.19;5008586;28;21237;-67
2023/04/08 07:01:37;;;;;;;6.37;5.57;;;18.80;99.60;;;19.53;49.62;101192.84;5022580;28;20643;-67
2023/04/08 07:04:04;;;;;;;6.93;5.90;;;19.50;97.90;;;19.84;46.44;101204.66;5023599;28;20661;-67
2023/04/08 07:06:31;;;;;;;6.93;6.23;;;20.00;94.20;;;19.92;45.44;101193.28;5010493;28;20649;-66
2023/04/08 07:08:58;;;;;;;6.50;5.90;;;20.10;92.30;;;19.73;45.73;101202.25;5008663;28;20684;-68
2023/04/08 07:11:25;;;;;;;8.20;7.17;;;19.90;92.10;;;19.90;44.86;101206.69;5010682;28;20617;-68
2023/04/08 07:13:52;;;;;;;7.27;6.67;;;20.00;90.80;;;19.69;44.98;101195.63;5002193;28;20624;-66
2023/04/08 07:16:19;;;;;;;7.20;6.50;;;19.80;90.40;;;19.63;44.96;101206.84;5010216;28;20624;-68
2023/04/08 07:18:46;;;;;;;8.13;7.43;;;19.80;90.00;;;18.70;47.34;101203.78;5009977;28;20648;-67
2023/04/08 07:21:13;;;;;;;8.50;6.20;;;19.00;90.70;;;17.71;48.98;101214.19;5000970;28;20632;-67
2023/04/08 07:23:40;;;;;;;8.13;6.50;;;18.10;91.80;;;16.90;50.30;101212.78;5003209;28;20665;-68
2023/04/08 07:26:07;;;;;;;8.47;7.03;;;17.30;92.80;;;16.21;53.27;101208.38;5009469;28;20648;-68
2023/04/08 07:28:40;;;;;;;7.90;7.10;;;16.60;94.70;;;15.74;55.47;101214.25;5001882;28;20621;-71
2023/04/08 07:31:15;;;;;;;7.43;6.67;;;16.00;96.30;;;15.72;54.74;101216.16;5003694;28;20630;-68
2023/04/08 07:33:43;;;;;;;8.27;7.47;;;15.90;97.10;;;15.65;55.13;101220.28;5026207;28;20613;-68
2023/04/08 07:36:12;;;;;;;5.97;4.27;;;15.80;97.60;;;15.58;54.85;101219.09;5011202;28;20671;-68
2023/04/08 07:38:40;;;;;;;7.73;6.70;;;15.70;97.60;;;15.42;55.45;101209.00;5010527;28;20737;-67
2023/04/08 07:41:08;;;;;;;7.67;6.97;;;15.60;98.00;;;15.32;55.71;101224.72;5010897;28;20675;-69
2023/04/08 07:43:36;;;;;;;7.67;6.70;;;15.50;98.50;;;14.93;56.53;101224.50;5010855;28;21055;-67
2023/04/08 07:46:05;;;;;;;8.30;6.70;;;15.20;98.90;;;14.74;58.01;101223.34;5009046;28;20728;-68
2023/04/08 07:48:33;;;;;;;8.50;7.20;;;14.90;99.90;;;14.50;58.89;101229.72;5012761;28;20617;-69
2023/04/08 07:51:08;;;;;;;11.97;8.13;;;14.70;99.90;;;14.16;60.04;101234.06;5058210;22;20688;-64
2023/04/08 07:53:38;;;;;;;8.80;7.90;;;14.40;99.90;;;14.03;60.85;101233.38;5032161;28;20635;-62
2023/04/08 07:56:13;;;;;;;7.43;6.30;;;14.20;99.90;;;13.78;61.54;101228.28;5028022;28;20647;-65
2023/04/08 07:58:41;;;;;;;7.90;7.00;;;13.90;99.90;;;13.39;63.63;101234.78;5026023;28;21036;-64
2023/04/08 08:01:20;;;;;;;11.80;6.80;;;13.60;99.90;;;13.27;63.96;101240.88;5020878;28;20726;-66
2023/04/08 08:03:48;;;;;;;8.33;6.20;;;13.40;99.90;;;13.19;63.70;101254.56;5012121;28;20707;-67
2023/04/08 08:06:16;;;;;;;6.93;5.37;;;13.30;99.90;;;13.26;64.16;101243.63;5026267;28;20632;-64
2023/04/08 08:08:43;;;;;;;7.47;6.60;;;13.30;99.90;;;13.35;64.06;101251.66;5015180;28;21050;-66
2023/04/08 08:11:09;;;;;;;8.40;6.70;;;13.40;99.90;;;13.58;63.89;101250.81;5031457;28;21411;-67
2023/04/08 08:13:36;;;;;;;7.57;5.33;;;13.60;99.90;;;13.84;63.01;101249.66;5026277;28;20755;-66
2023/04/08 08:16:07;;;;;;;7.27;5.50;;;13.80;99.90;;;14.05;62.00;101255.09;5018655;28;20641;-67
2023/04/08 08:18:34;;;;;;;9.27;6.50;;;14.00;99.90;;;14.30;62.15;101254.88;5012632;28;20625;-66
2023/04/08 08:21:02;;;;;;;8.70;6.80;;;14.30;99.90;;;14.60;61.41;101249.03;5012876;28;20959;-64
2023/04/08 08:23:29;;;;;;;8.13;7.00;;;14.60;99.90;;;14.90;60.38;101251.84;5026854;28;21262;-64
2023/04/08 08:26:08;;;;;;;8.47;6.33;;;14.90;99.90;;;15.33;58.95;101252.66;5029521;28;20670;-66
2023/04/08 08:28:37;;;;;;;7.33;6.20;;;15.30;99.90;;;15.64;57.29;101258.06;5024098;28;20629;-64
2023/04/08 08:31:04;;;;;;;9.00;6.20;;;15.70;99.90;;;16.09;55.80;101264.72;5012598;28;20649;-66
2023/04/08 08:33:32;;;;;;;9.70;7.80;;;16.10;99.90;;;16.29;55.05;101258.59;5019113;28;20719;-66
2023/04/08 08:35:59;;;;;;;7.53;6.83;;;16.40;99.90;;;16.46;54.71;101257.97;5028128;28;20651;-66
2023/04/08 08:38:26;;;;;;;9.17;7.93;;;16.60;99.90;;;16.48;54.77;101253.41;5011664;28;20670;-66
2023/04/08 08:40:55;;;;;;;9.80;7.67;;;16.70;99.90;;;16.41;55.29;101254.91;5024370;28;20664;-68
2023/04/08 08:43:23;;;;;;;10.73;8.00;;;16.50;99.90;;;16.25;55.84;101257.19;5022681;28;20648;-65
2023/04/08 08:45:50;;;;;;;12.03;5.40;;;16.40;99.90;;;16.02;55.56;101271.47;5029869;28;20624;-65
2023/04/08 08:48:17;;;;;;;9.17;7.37;;;16.20;99.90;;;15.47;56.24;101269.97;5013196;28;20629;-64
2023/04/08 08:50:44;;;;;;;8.57;7.53;;;15.70;99.90;;;15.15;57.51;101267.31;5026559;28;20659;-65
2023/04/08 08:53:11;;;;;;;9.97;8.50;;;15.30;99.90;;;14.66;59.50;101267.78;5028724;28;20624;-67
2023/04/08 08:55:39;;;;;;;11.00;8.43;;;14.90;99.90;;;14.32;60.79;101286.25;5015191;28;21169;-66
2023/04/08 08:58:27;;;;;;;12.40;8.60;;;14.50;99.90;;;14.12;61.10;101277.25;5010445;28;20725;-67
2023/04/08 09:00:54;;;;;;;9.60;6.80;;;14.20;99.90;;;14.57;60.12;101273.72;5026758;28;20738;-66
2023/04/08 09:03:26;;;;;;;10.03;7.67;;;14.50;99.90;;;15.01;58.04;101283.38;5022663;28;20620;-67
2023/04/08 09:05:59;;;;;;;10.43;6.07;;;15.00;99.90;;;15.36;57.54;101281.34;5026293;28;20638;-67
2023/04/08 09:08:35;;;;;;;9.80;8.53;;;15.40;99.90;;;15.59;55.28;101287.38;5027025;28;21043;-66
2023/04/08 09:11:16;;;;;;;9.90;5.80;;;15.70;99.90;;;16.60;53.67;101283.16;5025131;28;20644;-66
2023/04/08 09:13:45;;;;;;;12.23;8.10;;;16.50;99.90;;;17.25;51.54;101282.63;5018635;28;20740;-63
2023/04/08 09:16:16;;;;;;;11.20;8.60;;;17.30;98.80;;;17.75;49.69;101289.47;5025937;28;21196;-66
2023/04/08 09:18:47;;;;;;;10.40;6.50;;;17.80;96.80;;;17.82;48.84;101286.09;5024057;28;20648;-66
2023/04/08 09:21:16;;;;;;;10.33;9.17;;;18.00;95.40;;;17.14;50.13;101277.47;5022117;28;20653;-66
2023/04/08 09:23:50;;;;;;;9.77;7.83;;;17.60;95.30;;;17.83;48.07;101286.94;5021598;28;20703;-66
2023/04/08 09:26:23;;;;;;;11.87;8.30;;;18.00;94.50;;;18.01;47.81;101287.91;5019910;28;20645;-66
2023/04/08 09:29:05;;;;;;;10.33;7.53;;;18.30;93.30;;;18.61;47.04;101278.69;5029092;28;21037;-66
2023/04/08 09:31:59;;;;;;;6.47;5.80;;;18.70;93.00;;;19.35;44.32;101279.38;5026333;28;21213;-69
2023/04/08 09:34:28;;;;;;;9.23;8.43;;;19.70;90.30;;;19.26;43.65;101280.25;5019101;28;20665;-66
2023/04/08 09:36:55;;;;;;;10.10;9.10;;;19.60;87.60;;;19.04;43.33;101291.25;5010680;28;20613;-67
2023/04/08 09:39:23;;;;;;;8.30;7.50;;;19.40;85.60;;;18.27;45.70;101286.28;5011174;28;20657;-66
2023/04/08 09:41:51;;;;;;;8.13;7.07;;;18.70;88.10;;;17.70;47.22;101296.94;5013382;28;20653;-66
2023/04/08 09:44:23;;;;;;;4.13;2.73;;;18.10;90.20;;;17.32;47.44;101289.84;5021915;28;20703;-66
2023/04/08 09:46:50;;;;;;;11.93;8.30;;;17.60;90.30;;;16.90;49.16;101283.97;5012512;28;20992;-64
2023/04/08 09:49:42;;;;;;;7.27;6.50;;;17.10;91.40;;;16.30;51.09;101294.50;5014562;28;20639;-66
2023/04/08 09:52:29;;;;;;;10.53;7.80;;;16.50;92.70;;;16.66;49.99;101288.72;5025430;28;20629;-66
2023/04/08 09:55:07;;;;;;;12.27;8.23;;;16.70;92.90;;;17.37;47.75;101284.16;5012526;28;20633;-66
2023/04/08 09:57:44;;;;;;;9.77;8.87;;;17.30;91.80;;;18.04;45.96;101284.97;5010064;28;20624;-66
2023/04/08 10:00:17;;;;;;;12.97;9.10;;;18.00;90.20;;;17.69;46.30;101290.88;5017839;28;20660;-66
2023/04/08 10:03:15;;;;;;;9.37;7.43;;;18.00;90.00;;;17.30;46.70;101293.59;5029444;28;20652;-67
2023/04/08 10:05:43;;;;;;;11.37;8.60;;;17.50;89.40;;;16.84;47.83;101295.03;5020562;28;20666;-66
2023/04/08 10:08:11;;;;;;;12.90;8.90;;;17.10;90.30;;;16.42;48.88;101300.53;5023939;28;21126;-67
2023/04/08 10:10:40;;;;;;;10.00;5.77;;;16.60;91.10;;;15.75;50.24;101290.41;5008301;28;20673;-68
2023/04/08 10:13:07;;;;;;;10.63;9.53;;;16.00;91.70;;;15.33;51.94;101286.03;5010835;28;20629;-66
2023/04/08 10:15:42;;;;;;;5.30;3.77;;;15.50;93.30;;;15.05;52.84;101286.56;5022761;28;21210;-67
2023/04/08 10:18:08;;;;;;;8.03;6.33;;;15.20;93.80;;;14.82;54.32;101296.31;5021103;28;20668;-66
2023/04/08 10:20:35;;;;;;;8.80;7.70;;;14.90;95.10;;;14.54;54.10;101296.78;5016492;28;20755;-66
2023/04/08 10:23:12;;;;;;;10.77;9.07;;;14.70;95.10;;;14.55;54.36;101298.44;5018081;28;21305;-68
2023/04/08 10:25:48;;;;;;;10.67;9.33;;;14.60;95.90;;;14.29;52.63;101294.41;5018673;28;21220;-66